sensor_id;sensor_type;location;lat;lon;timestamp;P1;durP1;ratioP1;P2;durP2;ratioP2
1354;SDS011;671;48.972;9.276;2023-10-09T00:01:43;0.30;;;0.30;;
1354;SDS011;671;48.972;9.276;2023-10-09T00:04:10;0.40;;;0.40;;
1354;SDS011;671;48.972;9.276;2023-10-09T00:06:40;0.40;;;0.40;;
1354;SDS011;671;48.972;9.276;2023-10-09T00:09:09;0.60;;;0.60;;
1354;SDS011;671;48.972;9.276;2023-10-09T00:11:51;0.50;;;0.50;;
1354;SDS011;671;48.972;9.276;2023-10-09T00:14:25;0.40;;;0.30;;
1354;SDS011;671;48.972;9.276;2023-10-09T00:16:52;0.40;;;0.30;;
1354;SDS011;671;48.972;9.276;2023-10-09T00:19:28;0.40;;;0.40;;
1354;SDS011;671;48.972;9.276;2023-10-09T00:21:58;0.40;;;0.40;;
1354;SDS011;671;48.972;9.276;2023-10-09T00:24:33;0.40;;;0.40;;
1354;SDS011;671;48.972;9.276;2023-10-09T00:26:59;0.47;;;0.47;;
1354;SDS011;671;48.972;9.276;2023-10-09T00:29:39;0.40;;;0.40;;
1354;SDS011;671;48.972;9.276;2023-10-09T00:32:12;0.40;;;0.40;;
1354;SDS011;671;48.972;9.276;2023-10-09T00:35:05;0.40;;;0.40;;
1354;SDS011;671;48.972;9.276;2023-10-09T00:37:50;0.40;;;0.40;;
1354;SDS011;671;48.972;9.276;2023-10-09T00:40:20;0.40;;;0.40;;
1354;SDS011;671;48.972;9.276;2023-10-09T00:42:53;0.60;;;0.60;;
1354;SDS011;671;48.972;9.276;2023-10-09T00:45:21;0.33;;;0.30;;
1354;SDS011;671;48.972;9.276;2023-10-09T00:47:54;0.40;;;0.40;;
1354;SDS011;671;48.972;9.276;2023-10-09T00:50:24;0.40;;;0.30;;
1354;SDS011;671;48.972;9.276;2023-10-09T00:52:52;0.40;;;0.30;;
1354;SDS011;671;48.972;9.276;2023-10-09T00:55:31;0.40;;;0.40;;
1354;SDS011;671;48.972;9.276;2023-10-09T00:58:11;0.40;;;0.40;;
1354;SDS011;671;48.972;9.276;2023-10-09T01:00:40;0.47;;;0.47;;
1354;SDS011;671;48.972;9.276;2023-10-09T01:03:17;0.40;;;0.40;;
1354;SDS011;671;48.972;9.276;2023-10-09T01:05:54;0.40;;;0.40;;
1354;SDS011;671;48.972;9.276;2023-10-09T01:08:42;0.50;;;0.50;;
1354;SDS011;671;48.972;9.276;2023-10-09T01:11:12;0.43;;;0.43;;
1354;SDS011;671;48.972;9.276;2023-10-09T01:13:55;0.40;;;0.40;;
1354;SDS011;671;48.972;9.276;2023-10-09T01:16:37;0.40;;;0.40;;
1354;SDS011;671;48.972;9.276;2023-10-09T01:19:12;0.40;;;0.40;;
1354;SDS011;671;48.972;9.276;2023-10-09T01:21:46;0.40;;;0.40;;
1354;SDS011;671;48.972;9.276;2023-10-09T01:24:14;0.40;;;0.40;;
1354;SDS011;671;48.972;9.276;2023-10-09T01:26:42;0.40;;;0.40;;
1354;SDS011;671;48.972;9.276;2023-10-09T01:29:24;0.40;;;0.40;;
1354;SDS011;671;48.972;9.276;2023-10-09T01:31:55;0.40;;;0.40;;
1354;SDS011;671;48.972;9.276;2023-10-09T01:34:23;0.40;;;0.40;;
1354;SDS011;671;48.972;9.276;2023-10-09T01:36:50;0.40;;;0.40;;
1354;SDS011;671;48.972;9.276;2023-10-09T01:39:22;0.40;;;0.40;;
1354;SDS011;671;48.972;9.276;2023-10-09T01:42:05;0.40;;;0.40;;
1354;SDS011;671;48.972;9.276;2023-10-09T01:44:32;0.40;;;0.33;;
1354;SDS011;671;48.972;9.276;2023-10-09T01:47:05;0.40;;;0.40;;
1354;SDS011;671;48.972;9.276;2023-10-09T01:49:35;0.40;;;0.40;;
1354;SDS011;671;48.972;9.276;2023-10-09T01:52:03;0.50;;;0.50;;
1354;SDS011;671;48.972;9.276;2023-10-09T01:54:39;0.33;;;0.33;;
1354;SDS011;671;48.972;9.276;2023-10-09T01:57:13;0.50;;;0.50;;
1354;SDS011;671;48.972;9.276;2023-10-09T01:59:40;0.50;;;0.50;;
1354;SDS011;671;48.972;9.276;2023-10-09T02:02:10;0.50;;;0.50;;
1354;SDS011;671;48.972;9.276;2023-10-09T02:07:18;0.40;;;0.40;;
1354;SDS011;671;48.972;9.276;2023-10-09T02:09:55;0.50;;;0.50;;
1354;SDS011;671;48.972;9.276;2023-10-09T02:12:22;0.50;;;0.50;;
1354;SDS011;671;48.972;9.276;2023-10-09T02:14:50;0.40;;;0.40;;
1354;SDS011;671;48.972;9.276;2023-10-09T02:17:19;0.30;;;0.30;;
1354;SDS011;671;48.972;9.276;2023-10-09T02:19:46;0.40;;;0.40;;
1354;SDS011;671;48.972;9.276;2023-10-09T02:22:15;0.50;;;0.50;;
1354;SDS011;671;48.972;9.276;2023-10-09T02:24:43;0.40;;;0.37;;
1354;SDS011;671;48.972;9.276;2023-10-09T02:27:23;0.40;;;0.40;;
1354;SDS011;671;48.972;9.276;2023-10-09T02:30:09;0.40;;;0.40;;
1354;SDS011;671;48.972;9.276;2023-10-09T02:32:42;0.50;;;0.50;;
1354;SDS011;671;48.972;9.276;2023-10-09T02:35:09;0.40;;;0.40;;
1354;SDS011;671;48.972;9.276;2023-10-09T02:37:59;0.40;;;0.40;;
1354;SDS011;671;48.972;9.276;2023-10-09T02:40:27;0.40;;;0.33;;
1354;SDS011;671;48.972;9.276;2023-10-09T02:42:58;0.40;;;0.30;;
1354;SDS011;671;48.972;9.276;2023-10-09T02:45:24;0.60;;;0.60;;
1354;SDS011;671;48.972;9.276;2023-10-09T02:47:51;0.40;;;0.30;;
1354;SDS011;671;48.972;9.276;2023-10-09T02:50:17;0.40;;;0.40;;
1354;SDS011;671;48.972;9.276;2023-10-09T02:52:48;0.40;;;0.30;;
1354;SDS011;671;48.972;9.276;2023-10-09T02:55:25;0.40;;;0.40;;
1354;SDS011;671;48.972;9.276;2023-10-09T02:57:53;0.30;;;0.30;;
1354;SDS011;671;48.972;9.276;2023-10-09T03:00:40;0.33;;;0.30;;
1354;SDS011;671;48.972;9.276;2023-10-09T03:03:10;0.50;;;0.50;;
1354;SDS011;671;48.972;9.276;2023-10-09T03:05:36;0.40;;;0.33;;
1354;SDS011;671;48.972;9.276;2023-10-09T03:08:08;0.40;;;0.40;;
1354;SDS011;671;48.972;9.276;2023-10-09T03:10:38;0.40;;;0.40;;
1354;SDS011;671;48.972;9.276;2023-10-09T03:13:07;0.40;;;0.40;;
1354;SDS011;671;48.972;9.276;2023-10-09T03:15:34;0.47;;;0.47;;
1354;SDS011;671;48.972;9.276;2023-10-09T03:18:02;0.40;;;0.40;;
1354;SDS011;671;48.972;9.276;2023-10-09T03:20:31;0.33;;;0.33;;
1354;SDS011;671;48.972;9.276;2023-10-09T03:22:57;0.40;;;0.40;;
1354;SDS011;671;48.972;9.276;2023-10-09T03:25:27;0.43;;;0.43;;
1354;SDS011;671;48.972;9.276;2023-10-09T03:27:54;0.40;;;0.40;;
1354;SDS011;671;48.972;9.276;2023-10-09T03:30:24;0.50;;;0.50;;
1354;SDS011;671;48.972;9.276;2023-10-09T03:32:51;0.37;;;0.30;;
1354;SDS011;671;48.972;9.276;2023-10-09T03:35:19;0.40;;;0.40;;
1354;SDS011;671;48.972;9.276;2023-10-09T03:38:00;0.40;;;0.40;;
1354;SDS011;671;48.972;9.276;2023-10-09T03:40:35;0.40;;;0.40;;
1354;SDS011;671;48.972;9.276;2023-10-09T03:43:05;0.40;;;0.40;;
1354;SDS011;671;48.972;9.276;2023-10-09T03:45:32;0.40;;;0.30;;
1354;SDS011;671;48.972;9.276;2023-10-09T03:48:01;0.30;;;0.30;;
1354;SDS011;671;48.972;9.276;2023-10-09T03:50:37;0.40;;;0.40;;
1354;SDS011;671;48.972;9.276;2023-10-09T03:53:05;0.40;;;0.37;;
1354;SDS011;671;48.972;9.276;2023-10-09T03:55:34;0.50;;;0.50;;
1354;SDS011;671;48.972;9.276;2023-10-09T03:58:04;0.40;;;0.30;;
1354;SDS011;671;48.972;9.276;2023-10-09T04:00:32;0.40;;;0.40;;
1354;SDS011;671;48.972;9.276;2023-10-09T04:03:06;0.40;;;0.40;;
1354;SDS011;671;48.972;9.276;2023-10-09T04:05:33;0.40;;;0.40;;
1354;SDS011;671;48.972;9.276;2023-10-09T04:07:59;0.50;;;0.50;;
1354;SDS011;671;48.972;9.276;2023-10-09T04:10:27;0.40;;;0.40;;
1354;SDS011;671;48.972;9.276;2023-10-09T04:13:10;0.40;;;0.40;;
1354;SDS011;671;48.972;9.276;2023-10-09T04:15:42;0.40;;;0.40;;
1354;SDS011;671;48.972;9.276;2023-10-09T04:18:09;0.40;;;0.40;;
1354;SDS011;671;48.972;9.276;2023-10-09T04:20:42;0.40;;;0.40;;
1354;SDS011;671;48.972;9.276;2023-10-09T04:23:28;0.50;;;0.50;;
1354;SDS011;671;48.972;9.276;2023-10-09T04:26:01;0.40;;;0.40;;
1354;SDS011;671;48.972;9.276;2023-10-09T04:28:37;0.30;;;0.20;;
1354;SDS011;671;48.972;9.276;2023-10-09T04:31:03;0.40;;;0.40;;
1354;SDS011;671;48.972;9.276;2023-10-09T04:33:32;0.30;;;0.30;;
1354;SDS011;671;48.972;9.276;2023-10-09T04:36:02;0.30;;;0.30;;
1354;SDS011;671;48.972;9.276;2023-10-09T04:38:45;0.40;;;0.40;;
1354;SDS011;671;48.972;9.276;2023-10-09T04:41:30;0.40;;;0.40;;
1354;SDS011;671;48.972;9.276;2023-10-09T04:44:18;0.40;;;0.40;;
1354;SDS011;671;48.972;9.276;2023-10-09T04:46:45;0.40;;;0.40;;
1354;SDS011;671;48.972;9.276;2023-10-09T04:49:32;0.40;;;0.40;;
1354;SDS011;671;48.972;9.276;2023-10-09T04:52:17;0.40;;;0.40;;
1354;SDS011;671;48.972;9.276;2023-10-09T04:55:04;0.40;;;0.40;;
1354;SDS011;671;48.972;9.276;2023-10-09T05:00:11;0.50;;;0.50;;
1354;SDS011;671;48.972;9.276;2023-10-09T05:02:50;0.40;;;0.40;;
1354;SDS011;671;48.972;9.276;2023-10-09T05:05:21;0.40;;;0.40;;
1354;SDS011;671;48.972;9.276;2023-10-09T05:08:12;0.30;;;0.30;;
1354;SDS011;671;48.972;9.276;2023-10-09T05:10:51;0.30;;;0.30;;
1354;SDS011;671;48.972;9.276;2023-10-09T05:13:35;0.47;;;0.47;;
1354;SDS011;671;48.972;9.276;2023-10-09T05:18:55;0.40;;;0.40;;
1354;SDS011;671;48.972;9.276;2023-10-09T05:21:26;0.40;;;0.40;;
1354;SDS011;671;48.972;9.276;2023-10-09T05:24:15;0.50;;;0.50;;
1354;SDS011;671;48.972;9.276;2023-10-09T05:26:50;0.47;;;0.47;;
1354;SDS011;671;48.972;9.276;2023-10-09T05:29:33;0.50;;;0.50;;
1354;SDS011;671;48.972;9.276;2023-10-09T05:32:01;0.40;;;0.37;;
1354;SDS011;671;48.972;9.276;2023-10-09T05:34:40;0.30;;;0.20;;
1354;SDS011;671;48.972;9.276;2023-10-09T05:37:26;0.50;;;0.50;;
1354;SDS011;671;48.972;9.276;2023-10-09T05:40:14;0.40;;;0.30;;
1354;SDS011;671;48.972;9.276;2023-10-09T05:42:44;0.40;;;0.40;;
1354;SDS011;671;48.972;9.276;2023-10-09T05:45:13;0.40;;;0.40;;
1354;SDS011;671;48.972;9.276;2023-10-09T05:47:44;0.50;;;0.50;;
1354;SDS011;671;48.972;9.276;2023-10-09T05:50:30;0.60;;;0.60;;
1354;SDS011;671;48.972;9.276;2023-10-09T05:53:00;0.40;;;0.40;;
1354;SDS011;671;48.972;9.276;2023-10-09T05:55:28;0.40;;;0.40;;
1354;SDS011;671;48.972;9.276;2023-10-09T05:58:14;0.40;;;0.30;;
1354;SDS011;671;48.972;9.276;2023-10-09T06:00:59;0.43;;;0.43;;
1354;SDS011;671;48.972;9.276;2023-10-09T06:03:52;0.40;;;0.40;;
1354;SDS011;671;48.972;9.276;2023-10-09T06:06:21;0.30;;;0.30;;
1354;SDS011;671;48.972;9.276;2023-10-09T06:09:03;0.40;;;0.40;;
1354;SDS011;671;48.972;9.276;2023-10-09T06:11:54;0.37;;;0.37;;
1354;SDS011;671;48.972;9.276;2023-10-09T06:14:22;0.50;;;0.50;;
1354;SDS011;671;48.972;9.276;2023-10-09T06:16:56;0.40;;;0.40;;
1354;SDS011;671;48.972;9.276;2023-10-09T06:19:24;0.50;;;0.50;;
1354;SDS011;671;48.972;9.276;2023-10-09T06:21:55;0.53;;;0.53;;
1354;SDS011;671;48.972;9.276;2023-10-09T06:24:38;0.40;;;0.37;;
1354;SDS011;671;48.972;9.276;2023-10-09T06:27:08;0.30;;;0.30;;
1354;SDS011;671;48.972;9.276;2023-10-09T06:29:35;0.40;;;0.40;;
1354;SDS011;671;48.972;9.276;2023-10-09T06:32:02;0.40;;;0.40;;
1354;SDS011;671;48.972;9.276;2023-10-09T06:37:21;0.50;;;0.50;;
1354;SDS011;671;48.972;9.276;2023-10-09T06:39:55;0.40;;;0.40;;
1354;SDS011;671;48.972;9.276;2023-10-09T06:42:26;0.43;;;0.43;;
1354;SDS011;671;48.972;9.276;2023-10-09T06:45:00;0.30;;;0.30;;
1354;SDS011;671;48.972;9.276;2023-10-09T06:47:30;0.40;;;0.40;;
1354;SDS011;671;48.972;9.276;2023-10-09T06:50:07;0.43;;;0.43;;
1354;SDS011;671;48.972;9.276;2023-10-09T06:52:46;0.33;;;0.23;;
1354;SDS011;671;48.972;9.276;2023-10-09T06:55:38;0.43;;;0.43;;
1354;SDS011;671;48.972;9.276;2023-10-09T06:58:23;0.40;;;0.40;;
1354;SDS011;671;48.972;9.276;2023-10-09T07:00:54;0.40;;;0.40;;
1354;SDS011;671;48.972;9.276;2023-10-09T07:03:25;0.40;;;0.40;;
1354;SDS011;671;48.972;9.276;2023-10-09T07:06:08;0.50;;;0.50;;
1354;SDS011;671;48.972;9.276;2023-10-09T07:08:50;0.30;;;0.30;;
1354;SDS011;671;48.972;9.276;2023-10-09T07:11:35;0.50;;;0.50;;
1354;SDS011;671;48.972;9.276;2023-10-09T07:14:08;0.40;;;0.30;;
1354;SDS011;671;48.972;9.276;2023-10-09T07:17:00;0.30;;;0.30;;
1354;SDS011;671;48.972;9.276;2023-10-09T07:19:28;0.37;;;0.30;;
1354;SDS011;671;48.972;9.276;2023-10-09T07:22:00;0.30;;;0.30;;
1354;SDS011;671;48.972;9.276;2023-10-09T07:24:30;0.30;;;0.20;;
1354;SDS011;671;48.972;9.276;2023-10-09T07:27:20;0.30;;;0.30;;
1354;SDS011;671;48.972;9.276;2023-10-09T07:30:07;0.40;;;0.40;;
1354;SDS011;671;48.972;9.276;2023-10-09T07:33:04;0.30;;;0.30;;
1354;SDS011;671;48.972;9.276;2023-10-09T07:35:43;0.30;;;0.30;;
1354;SDS011;671;48.972;9.276;2023-10-09T07:40:54;0.40;;;0.40;;
1354;SDS011;671;48.972;9.276;2023-10-09T07:43:23;0.30;;;0.30;;
1354;SDS011;671;48.972;9.276;2023-10-09T07:45:53;0.30;;;0.30;;
1354;SDS011;671;48.972;9.276;2023-10-09T07:48:40;0.30;;;0.27;;
1354;SDS011;671;48.972;9.276;2023-10-09T07:51:18;0.40;;;0.30;;
1354;SDS011;671;48.972;9.276;2023-10-09T07:53:49;0.40;;;0.40;;
1354;SDS011;671;48.972;9.276;2023-10-09T07:56:26;0.30;;;0.30;;
1354;SDS011;671;48.972;9.276;2023-10-09T07:58:56;0.33;;;0.33;;
1354;SDS011;671;48.972;9.276;2023-10-09T08:01:26;0.30;;;0.20;;
1354;SDS011;671;48.972;9.276;2023-10-09T08:04:01;0.30;;;0.30;;
1354;SDS011;671;48.972;9.276;2023-10-09T08:06:37;0.30;;;0.30;;
1354;SDS011;671;48.972;9.276;2023-10-09T08:09:10;0.33;;;0.33;;
1354;SDS011;671;48.972;9.276;2023-10-09T08:11:41;0.40;;;0.40;;
1354;SDS011;671;48.972;9.276;2023-10-09T08:14:13;0.30;;;0.30;;
1354;SDS011;671;48.972;9.276;2023-10-09T08:16:59;0.30;;;0.30;;
1354;SDS011;671;48.972;9.276;2023-10-09T08:19:40;0.30;;;0.30;;
1354;SDS011;671;48.972;9.276;2023-10-09T08:22:20;0.30;;;0.20;;
1354;SDS011;671;48.972;9.276;2023-10-09T08:24:48;0.30;;;0.30;;
1354;SDS011;671;48.972;9.276;2023-10-09T08:30:02;0.30;;;0.20;;
1354;SDS011;671;48.972;9.276;2023-10-09T08:32:39;0.30;;;0.30;;
1354;SDS011;671;48.972;9.276;2023-10-09T08:35:06;1.40;;;1.30;;
1354;SDS011;671;48.972;9.276;2023-10-09T08:37:58;0.30;;;0.20;;
1354;SDS011;671;48.972;9.276;2023-10-09T08:40:42;0.30;;;0.30;;
1354;SDS011;671;48.972;9.276;2023-10-09T08:43:15;0.30;;;0.30;;
1354;SDS011;671;48.972;9.276;2023-10-09T08:45:52;0.30;;;0.20;;
1354;SDS011;671;48.972;9.276;2023-10-09T08:48:20;0.30;;;0.30;;
1354;SDS011;671;48.972;9.276;2023-10-09T08:50:53;0.30;;;0.30;;
1354;SDS011;671;48.972;9.276;2023-10-09T08:53:21;0.30;;;0.30;;
1354;SDS011;671;48.972;9.276;2023-10-09T08:55:57;0.30;;;0.30;;
1354;SDS011;671;48.972;9.276;2023-10-09T08:58:24;0.30;;;0.20;;
1354;SDS011;671;48.972;9.276;2023-10-09T09:00:54;0.30;;;0.20;;
1354;SDS011;671;48.972;9.276;2023-10-09T09:03:24;0.30;;;0.30;;
1354;SDS011;671;48.972;9.276;2023-10-09T09:05:58;0.30;;;0.30;;
1354;SDS011;671;48.972;9.276;2023-10-09T09:08:31;0.30;;;0.20;;
1354;SDS011;671;48.972;9.276;2023-10-09T09:11:07;0.30;;;0.30;;
1354;SDS011;671;48.972;9.276;2023-10-09T09:18:51;0.30;;;0.20;;
1354;SDS011;671;48.972;9.276;2023-10-09T09:21:50;0.30;;;0.20;;
1354;SDS011;671;48.972;9.276;2023-10-09T09:24:25;0.30;;;0.20;;
1354;SDS011;671;48.972;9.276;2023-10-09T09:26:56;0.30;;;0.20;;
1354;SDS011;671;48.972;9.276;2023-10-09T09:32:08;0.30;;;0.20;;
1354;SDS011;671;48.972;9.276;2023-10-09T09:37:21;0.30;;;0.20;;
1354;SDS011;671;48.972;9.276;2023-10-09T09:39:56;0.30;;;0.20;;
1354;SDS011;671;48.972;9.276;2023-10-09T09:42:24;0.30;;;0.20;;
1354;SDS011;671;48.972;9.276;2023-10-09T09:44:52;0.30;;;0.20;;
1354;SDS011;671;48.972;9.276;2023-10-09T09:47:19;0.30;;;0.20;;
1354;SDS011;671;48.972;9.276;2023-10-09T09:49:56;0.30;;;0.20;;
1354;SDS011;671;48.972;9.276;2023-10-09T09:52:26;0.30;;;0.20;;
1354;SDS011;671;48.972;9.276;2023-10-09T09:54:55;0.30;;;0.20;;
1354;SDS011;671;48.972;9.276;2023-10-09T09:57:23;0.30;;;0.20;;
1354;SDS011;671;48.972;9.276;2023-10-09T09:59:52;0.30;;;0.20;;
1354;SDS011;671;48.972;9.276;2023-10-09T10:02:24;0.30;;;0.20;;
1354;SDS011;671;48.972;9.276;2023-10-09T10:05:00;0.30;;;0.20;;
1354;SDS011;671;48.972;9.276;2023-10-09T10:07:32;0.30;;;0.20;;
1354;SDS011;671;48.972;9.276;2023-10-09T10:13:03;0.30;;;0.20;;
1354;SDS011;671;48.972;9.276;2023-10-09T10:18:32;0.30;;;0.20;;
1354;SDS011;671;48.972;9.276;2023-10-09T10:23:40;0.30;;;0.20;;
1354;SDS011;671;48.972;9.276;2023-10-09T10:31:56;0.30;;;0.20;;
1354;SDS011;671;48.972;9.276;2023-10-09T10:34:26;0.30;;;0.20;;
1354;SDS011;671;48.972;9.276;2023-10-09T10:40:04;0.30;;;0.20;;
1354;SDS011;671;48.972;9.276;2023-10-09T10:42:48;0.30;;;0.20;;
1354;SDS011;671;48.972;9.276;2023-10-09T10:45:35;0.30;;;0.20;;
1354;SDS011;671;48.972;9.276;2023-10-09T10:48:05;0.30;;;0.20;;
1354;SDS011;671;48.972;9.276;2023-10-09T10:50:37;0.30;;;0.20;;
1354;SDS011;671;48.972;9.276;2023-10-09T10:53:13;0.30;;;0.20;;
1354;SDS011;671;48.972;9.276;2023-10-09T10:55:59;0.30;;;0.20;;
1354;SDS011;671;48.972;9.276;2023-10-09T10:58:41;0.30;;;0.20;;
1354;SDS011;671;48.972;9.276;2023-10-09T11:01:20;0.30;;;0.20;;
1354;SDS011;671;48.972;9.276;2023-10-09T11:03:52;0.30;;;0.20;;
1354;SDS011;671;48.972;9.276;2023-10-09T11:06:28;0.30;;;0.20;;
1354;SDS011;671;48.972;9.276;2023-10-09T11:09:05;0.30;;;0.20;;
1354;SDS011;671;48.972;9.276;2023-10-09T11:11:50;0.30;;;0.20;;
1354;SDS011;671;48.972;9.276;2023-10-09T11:14:21;0.30;;;0.20;;
1354;SDS011;671;48.972;9.276;2023-10-09T11:16:49;0.30;;;0.10;;
1354;SDS011;671;48.972;9.276;2023-10-09T11:19:20;0.30;;;0.10;;
1354;SDS011;671;48.972;9.276;2023-10-09T11:21:53;0.30;;;0.17;;
1354;SDS011;671;48.972;9.276;2023-10-09T11:24:45;0.30;;;0.10;;
1354;SDS011;671;48.972;9.276;2023-10-09T11:27:26;0.30;;;0.20;;
1354;SDS011;671;48.972;9.276;2023-10-09T11:29:58;0.30;;;0.20;;
1354;SDS011;671;48.972;9.276;2023-10-09T11:32:45;0.30;;;0.20;;
1354;SDS011;671;48.972;9.276;2023-10-09T11:35:13;0.30;;;0.20;;
1354;SDS011;671;48.972;9.276;2023-10-09T11:37:56;0.30;;;0.20;;
1354;SDS011;671;48.972;9.276;2023-10-09T11:40:33;0.30;;;0.20;;
1354;SDS011;671;48.972;9.276;2023-10-09T11:43:18;0.30;;;0.20;;
1354;SDS011;671;48.972;9.276;2023-10-09T11:46:11;0.30;;;0.20;;
1354;SDS011;671;48.972;9.276;2023-10-09T11:48:38;0.30;;;0.20;;
1354;SDS011;671;48.972;9.276;2023-10-09T11:51:33;0.30;;;0.20;;
1354;SDS011;671;48.972;9.276;2023-10-09T11:54:04;0.30;;;0.20;;
1354;SDS011;671;48.972;9.276;2023-10-09T11:56:34;0.30;;;0.20;;
1354;SDS011;671;48.972;9.276;2023-10-09T11:59:01;0.30;;;0.13;;
1354;SDS011;671;48.972;9.276;2023-10-09T12:01:35;0.30;;;0.20;;
1354;SDS011;671;48.972;9.276;2023-10-09T12:04:03;0.30;;;0.20;;
1354;SDS011;671;48.972;9.276;2023-10-09T12:06:29;0.30;;;0.20;;
1354;SDS011;671;48.972;9.276;2023-10-09T12:08:58;0.30;;;0.20;;
1354;SDS011;671;48.972;9.276;2023-10-09T12:11:24;0.30;;;0.20;;
1354;SDS011;671;48.972;9.276;2023-10-09T12:13:57;0.30;;;0.20;;
1354;SDS011;671;48.972;9.276;2023-10-09T12:16:26;0.30;;;0.20;;
1354;SDS011;671;48.972;9.276;2023-10-09T12:18:58;0.30;;;0.10;;
1354;SDS011;671;48.972;9.276;2023-10-09T12:21:25;0.30;;;0.20;;
1354;SDS011;671;48.972;9.276;2023-10-09T12:23:54;0.30;;;0.10;;
1354;SDS011;671;48.972;9.276;2023-10-09T12:26:23;0.30;;;0.20;;
1354;SDS011;671;48.972;9.276;2023-10-09T12:28:50;0.30;;;0.10;;
1354;SDS011;671;48.972;9.276;2023-10-09T12:31:16;0.30;;;0.10;;
1354;SDS011;671;48.972;9.276;2023-10-09T12:33:47;0.30;;;0.20;;
1354;SDS011;671;48.972;9.276;2023-10-09T12:36:15;0.30;;;0.20;;
1354;SDS011;671;48.972;9.276;2023-10-09T12:38:46;0.30;;;0.20;;
1354;SDS011;671;48.972;9.276;2023-10-09T12:41:19;0.30;;;0.20;;
1354;SDS011;671;48.972;9.276;2023-10-09T12:43:51;0.30;;;0.10;;
1354;SDS011;671;48.972;9.276;2023-10-09T12:46:20;0.30;;;0.17;;
1354;SDS011;671;48.972;9.276;2023-10-09T12:48:51;0.30;;;0.20;;
1354;SDS011;671;48.972;9.276;2023-10-09T12:51:20;0.30;;;0.10;;
1354;SDS011;671;48.972;9.276;2023-10-09T12:53:52;0.30;;;0.10;;
1354;SDS011;671;48.972;9.276;2023-10-09T12:56:27;0.30;;;0.20;;
1354;SDS011;671;48.972;9.276;2023-10-09T12:59:03;0.30;;;0.10;;
1354;SDS011;671;48.972;9.276;2023-10-09T13:01:33;0.30;;;0.20;;
1354;SDS011;671;48.972;9.276;2023-10-09T13:04:09;0.30;;;0.20;;
1354;SDS011;671;48.972;9.276;2023-10-09T13:06:42;0.30;;;0.10;;
1354;SDS011;671;48.972;9.276;2023-10-09T13:09:16;0.30;;;0.10;;
1354;SDS011;671;48.972;9.276;2023-10-09T13:12:02;0.30;;;0.13;;
1354;SDS011;671;48.972;9.276;2023-10-09T13:14:28;0.30;;;0.10;;
1354;SDS011;671;48.972;9.276;2023-10-09T13:16:59;0.30;;;0.10;;
1354;SDS011;671;48.972;9.276;2023-10-09T13:19:26;0.30;;;0.20;;
1354;SDS011;671;48.972;9.276;2023-10-09T13:21:53;0.30;;;0.10;;
1354;SDS011;671;48.972;9.276;2023-10-09T13:24:20;0.30;;;0.10;;
1354;SDS011;671;48.972;9.276;2023-10-09T13:26:55;0.30;;;0.10;;
1354;SDS011;671;48.972;9.276;2023-10-09T13:29:24;0.30;;;0.10;;
1354;SDS011;671;48.972;9.276;2023-10-09T13:31:51;0.30;;;0.10;;
1354;SDS011;671;48.972;9.276;2023-10-09T13:34:24;0.30;;;0.10;;
1354;SDS011;671;48.972;9.276;2023-10-09T13:36:54;0.30;;;0.20;;
1354;SDS011;671;48.972;9.276;2023-10-09T13:39:24;0.30;;;0.20;;
1354;SDS011;671;48.972;9.276;2023-10-09T13:41:52;0.30;;;0.10;;
1354;SDS011;671;48.972;9.276;2023-10-09T13:44:30;0.30;;;0.10;;
1354;SDS011;671;48.972;9.276;2023-10-09T13:46:58;0.30;;;0.20;;
1354;SDS011;671;48.972;9.276;2023-10-09T13:49:31;0.30;;;0.10;;
1354;SDS011;671;48.972;9.276;2023-10-09T13:51:59;0.30;;;0.10;;
1354;SDS011;671;48.972;9.276;2023-10-09T13:54:32;0.30;;;0.20;;
1354;SDS011;671;48.972;9.276;2023-10-09T13:56:59;0.30;;;0.10;;
1354;SDS011;671;48.972;9.276;2023-10-09T13:59:26;0.30;;;0.20;;
1354;SDS011;671;48.972;9.276;2023-10-09T14:01:53;0.30;;;0.20;;
1354;SDS011;671;48.972;9.276;2023-10-09T14:04:25;0.30;;;0.20;;
1354;SDS011;671;48.972;9.276;2023-10-09T14:06:55;0.30;;;0.20;;
1354;SDS011;671;48.972;9.276;2023-10-09T14:09:25;0.30;;;0.10;;
1354;SDS011;671;48.972;9.276;2023-10-09T14:12:19;0.30;;;0.20;;
1354;SDS011;671;48.972;9.276;2023-10-09T14:14:47;0.30;;;0.10;;
1354;SDS011;671;48.972;9.276;2023-10-09T14:17:18;0.30;;;0.20;;
1354;SDS011;671;48.972;9.276;2023-10-09T14:19:50;0.30;;;0.20;;
1354;SDS011;671;48.972;9.276;2023-10-09T14:22:18;0.30;;;0.20;;
1354;SDS011;671;48.972;9.276;2023-10-09T14:24:55;0.30;;;0.10;;
1354;SDS011;671;48.972;9.276;2023-10-09T14:27:26;0.30;;;0.20;;
1354;SDS011;671;48.972;9.276;2023-10-09T14:29:55;0.30;;;0.20;;
1354;SDS011;671;48.972;9.276;2023-10-09T14:32:25;0.30;;;0.20;;
1354;SDS011;671;48.972;9.276;2023-10-09T14:34:55;0.30;;;0.20;;
1354;SDS011;671;48.972;9.276;2023-10-09T14:37:27;0.30;;;0.10;;
1354;SDS011;671;48.972;9.276;2023-10-09T14:39:53;0.30;;;0.20;;
1354;SDS011;671;48.972;9.276;2023-10-09T14:42:22;0.30;;;0.10;;
1354;SDS011;671;48.972;9.276;2023-10-09T14:44:50;0.30;;;0.20;;
1354;SDS011;671;48.972;9.276;2023-10-09T14:47:17;0.30;;;0.10;;
1354;SDS011;671;48.972;9.276;2023-10-09T14:49:47;0.30;;;0.20;;
1354;SDS011;671;48.972;9.276;2023-10-09T14:52:15;0.30;;;0.20;;
1354;SDS011;671;48.972;9.276;2023-10-09T14:54:46;0.30;;;0.20;;
1354;SDS011;671;48.972;9.276;2023-10-09T14:57:13;0.30;;;0.13;;
1354;SDS011;671;48.972;9.276;2023-10-09T14:59:40;0.30;;;0.10;;
1354;SDS011;671;48.972;9.276;2023-10-09T15:02:09;0.30;;;0.20;;
1354;SDS011;671;48.972;9.276;2023-10-09T15:04:35;0.30;;;0.10;;
1354;SDS011;671;48.972;9.276;2023-10-09T15:07:03;0.30;;;0.20;;
1354;SDS011;671;48.972;9.276;2023-10-09T15:09:33;0.30;;;0.20;;
1354;SDS011;671;48.972;9.276;2023-10-09T15:12:05;0.30;;;0.10;;
1354;SDS011;671;48.972;9.276;2023-10-09T15:14:32;0.30;;;0.20;;
1354;SDS011;671;48.972;9.276;2023-10-09T15:16:59;0.30;;;0.20;;
1354;SDS011;671;48.972;9.276;2023-10-09T15:19:26;0.30;;;0.10;;
1354;SDS011;671;48.972;9.276;2023-10-09T15:21:56;0.30;;;0.20;;
1354;SDS011;671;48.972;9.276;2023-10-09T15:24:24;0.30;;;0.10;;
1354;SDS011;671;48.972;9.276;2023-10-09T15:26:53;0.30;;;0.20;;
1354;SDS011;671;48.972;9.276;2023-10-09T15:29:23;0.30;;;0.20;;
1354;SDS011;671;48.972;9.276;2023-10-09T15:31:54;0.30;;;0.10;;
1354;SDS011;671;48.972;9.276;2023-10-09T15:34:21;0.30;;;0.10;;
1354;SDS011;671;48.972;9.276;2023-10-09T15:36:48;0.30;;;0.20;;
1354;SDS011;671;48.972;9.276;2023-10-09T15:39:15;0.30;;;0.10;;
1354;SDS011;671;48.972;9.276;2023-10-09T15:41:45;0.30;;;0.20;;
1354;SDS011;671;48.972;9.276;2023-10-09T15:44:12;0.30;;;0.20;;
1354;SDS011;671;48.972;9.276;2023-10-09T15:46:39;0.30;;;0.20;;
1354;SDS011;671;48.972;9.276;2023-10-09T15:49:06;0.30;;;0.10;;
1354;SDS011;671;48.972;9.276;2023-10-09T15:51:37;0.30;;;0.20;;
1354;SDS011;671;48.972;9.276;2023-10-09T15:54:04;0.30;;;0.20;;
1354;SDS011;671;48.972;9.276;2023-10-09T15:56:36;0.30;;;0.20;;
1354;SDS011;671;48.972;9.276;2023-10-09T15:59:08;0.30;;;0.20;;
1354;SDS011;671;48.972;9.276;2023-10-09T16:01:37;0.30;;;0.20;;
1354;SDS011;671;48.972;9.276;2023-10-09T16:04:09;0.30;;;0.20;;
1354;SDS011;671;48.972;9.276;2023-10-09T16:06:37;0.30;;;0.10;;
1354;SDS011;671;48.972;9.276;2023-10-09T16:09:07;0.30;;;0.10;;
1354;SDS011;671;48.972;9.276;2023-10-09T16:11:37;0.30;;;0.10;;
1354;SDS011;671;48.972;9.276;2023-10-09T16:14:05;0.30;;;0.20;;
1354;SDS011;671;48.972;9.276;2023-10-09T16:16:41;0.30;;;0.20;;
1354;SDS011;671;48.972;9.276;2023-10-09T16:19:08;0.30;;;0.20;;
1354;SDS011;671;48.972;9.276;2023-10-09T16:21:36;0.30;;;0.20;;
1354;SDS011;671;48.972;9.276;2023-10-09T16:24:03;0.30;;;0.20;;
1354;SDS011;671;48.972;9.276;2023-10-09T16:26:35;0.30;;;0.20;;
1354;SDS011;671;48.972;9.276;2023-10-09T16:29:11;0.30;;;0.20;;
1354;SDS011;671;48.972;9.276;2023-10-09T16:31:38;0.30;;;0.20;;
1354;SDS011;671;48.972;9.276;2023-10-09T16:34:05;0.30;;;0.20;;
1354;SDS011;671;48.972;9.276;2023-10-09T16:36:33;0.30;;;0.20;;
1354;SDS011;671;48.972;9.276;2023-10-09T16:39:01;0.30;;;0.20;;
1354;SDS011;671;48.972;9.276;2023-10-09T16:41:29;0.30;;;0.20;;
1354;SDS011;671;48.972;9.276;2023-10-09T16:43:55;0.30;;;0.20;;
1354;SDS011;671;48.972;9.276;2023-10-09T16:46:22;0.30;;;0.20;;
1354;SDS011;671;48.972;9.276;2023-10-09T16:48:49;0.30;;;0.20;;
1354;SDS011;671;48.972;9.276;2023-10-09T16:51:21;0.30;;;0.20;;